createdAt,value
2023-07-02T00:02:49.145Z,8.60
2023-07-02T00:12:55.427Z,7.90
2023-07-02T00:22:59.102Z,7.70
2023-07-02T00:34:03.447Z,9.70
2023-07-02T00:46:08.518Z,9.80
2023-07-02T00:56:12.429Z,12.20
2023-07-02T01:06:17.087Z,11.80
2023-07-02T01:17:21.498Z,11.50
2023-07-02T01:28:25.889Z,11.30
2023-07-02T01:38:29.856Z,10.10
2023-07-02T01:48:37.701Z,11.70
2023-07-02T01:59:42.607Z,18.00
2023-07-02T02:11:11.086Z,19.20
2023-07-02T02:21:15.028Z,15.70
2023-07-02T02:31:19.194Z,12.30
2023-07-02T02:42:24.689Z,12.20
2023-07-02T02:52:33.590Z,13.20
2023-07-02T03:03:15.401Z,11.30
2023-07-02T03:13:19.148Z,10.40
2023-07-02T03:23:23.803Z,8.40
2023-07-02T03:33:47.676Z,8.80
2023-07-02T03:43:51.371Z,9.40
2023-07-02T03:53:55.102Z,9.00
2023-07-02T04:03:59.576Z,8.90
2023-07-02T04:14:03.886Z,9.10
2023-07-02T04:24:07.864Z,9.70
2023-07-02T04:34:11.964Z,9.90
2023-07-02T04:44:15.683Z,9.60
2023-07-02T04:54:19.384Z,10.30
2023-07-02T05:05:23.761Z,12.10
2023-07-02T05:15:27.869Z,16.40
2023-07-02T05:25:31.776Z,15.50
2023-07-02T05:36:15.648Z,15.80
2023-07-02T05:46:59.864Z,16.90
2023-07-02T05:58:04.383Z,15.30
2023-07-02T06:09:08.726Z,15.70
2023-07-02T06:19:13.620Z,14.10
2023-07-02T06:29:17.412Z,14.40
2023-07-02T06:40:01.591Z,13.40
2023-07-02T06:50:11.931Z,11.80
2023-07-02T07:00:16.177Z,8.90
2023-07-02T07:11:20.687Z,9.00
2023-07-02T07:22:25.297Z,10.20
2023-07-02T07:33:30.216Z,10.20
2023-07-02T07:44:34.582Z,9.10
2023-07-02T07:54:38.245Z,9.20
2023-07-02T08:05:22.451Z,9.20
2023-07-02T08:16:06.664Z,8.10
2023-07-02T08:27:11.014Z,7.40
2023-07-02T08:37:14.910Z,4.00
2023-07-02T08:47:18.911Z,3.80
2023-07-02T08:57:50.759Z,2.40
2023-07-02T09:08:57.765Z,2.60
2023-07-02T09:20:08.107Z,2.50
2023-07-02T09:30:17.471Z,2.30
2023-07-02T09:40:22.267Z,2.10
2023-07-02T09:50:26.336Z,1.90
2023-07-02T10:00:39.674Z,2.00
2023-07-02T10:10:43.885Z,3.10
2023-07-02T10:20:47.849Z,2.40
2023-07-02T10:31:58.939Z,2.80
2023-07-02T10:43:09.478Z,2.40
2023-07-02T10:53:33.082Z,2.60
2023-07-02T11:03:36.921Z,2.30
2023-07-02T11:13:48.436Z,2.90
2023-07-02T11:24:52.922Z,4.90
2023-07-02T11:36:40.637Z,3.80
2023-07-02T11:46:45.161Z,3.40
2023-07-02T11:56:49.499Z,2.40
2023-07-02T12:06:54.147Z,3.00
2023-07-02T12:16:57.972Z,2.80
2023-07-02T12:27:02.094Z,2.90
2023-07-02T12:37:06.564Z,4.60
2023-07-02T12:47:10.460Z,5.20
2023-07-02T12:57:14.334Z,3.30
2023-07-02T13:07:18.550Z,3.30
2023-07-02T13:17:23.019Z,3.90
2023-07-02T13:27:26.743Z,3.70
2023-07-02T13:38:31.250Z,3.20
2023-07-02T13:49:35.373Z,4.70
2023-07-02T13:59:39.107Z,4.40
2023-07-02T14:09:42.833Z,4.50
2023-07-02T14:19:46.557Z,3.40
2023-07-02T14:29:53.427Z,4.60
2023-07-02T14:40:37.694Z,5.70
2023-07-02T14:51:45.370Z,5.10
2023-07-02T15:01:54.338Z,4.40
2023-07-02T15:11:58.125Z,4.60
2023-07-02T15:22:01.901Z,4.20
2023-07-02T15:32:05.782Z,3.80
2023-07-02T15:42:09.528Z,5.70
2023-07-02T15:52:13.269Z,5.20
2023-07-02T16:02:17.084Z,6.20
2023-07-02T16:12:21.086Z,5.10
2023-07-02T16:23:25.461Z,5.60
2023-07-02T16:34:09.939Z,5.90
2023-07-02T16:44:19.146Z,6.70
2023-07-02T16:55:23.344Z,5.70
2023-07-02T17:05:27.182Z,5.90
2023-07-02T17:16:31.627Z,5.70
2023-07-02T17:27:36.032Z,6.30
2023-07-02T17:38:40.571Z,7.40
2023-07-02T17:48:45.882Z,7.90
2023-07-02T17:59:51.823Z,7.60
2023-07-02T18:10:42.748Z,6.80
2023-07-02T18:21:13.406Z,6.00
2023-07-02T18:31:17.236Z,6.80
2023-07-02T18:42:21.825Z,6.20
2023-07-02T18:52:25.676Z,5.80
2023-07-02T19:02:30.461Z,6.40
2023-07-02T19:12:34.503Z,6.90
2023-07-02T19:22:38.268Z,8.10
2023-07-02T19:32:42.203Z,6.70
2023-07-02T19:43:46.382Z,6.30
2023-07-02T19:53:50.606Z,6.90
2023-07-02T20:04:34.871Z,7.50
2023-07-02T20:14:41.057Z,7.40
2023-07-02T20:26:04.032Z,6.80
2023-07-02T20:36:08.233Z,7.40
2023-07-02T20:46:14.413Z,6.40
2023-07-02T20:56:18.353Z,9.10
2023-07-02T21:06:24.458Z,6.70
2023-07-02T21:16:57.663Z,7.50
2023-07-02T21:27:01.787Z,6.80
2023-07-02T21:37:05.690Z,7.20
2023-07-02T21:47:09.546Z,7.20
2023-07-02T21:57:13.272Z,6.30
2023-07-02T22:07:17.168Z,7.30
2023-07-02T22:18:24.174Z,6.70
2023-07-02T22:29:28.692Z,6.60
2023-07-02T22:40:33.541Z,8.70
2023-07-02T22:50:38.637Z,7.00
2023-07-02T23:00:42.708Z,7.40
2023-07-02T23:10:46.808Z,7.10
2023-07-02T23:21:51.230Z,7.50
2023-07-02T23:33:15.316Z,8.00
2023-07-02T23:43:39.296Z,7.50
2023-07-02T23:53:42.951Z,7.90
